createdAt,value
2018-11-13T00:00:24.147Z,7.60
2018-11-13T00:02:53.838Z,7.83
2018-11-13T00:05:23.490Z,7.33
2018-11-13T00:07:52.740Z,7.67
2018-11-13T00:10:21.992Z,7.42
2018-11-13T00:12:51.150Z,7.62
2018-11-13T00:15:20.304Z,7.22
2018-11-13T00:17:49.450Z,7.72
2018-11-13T00:20:19.384Z,7.75
2018-11-13T00:22:48.596Z,8.00
2018-11-13T00:25:18.776Z,7.12
2018-11-13T00:27:47.924Z,7.60
2018-11-13T00:30:18.788Z,7.05
2018-11-13T00:32:47.969Z,6.97
2018-11-13T00:35:17.740Z,7.50
2018-11-13T00:37:47.572Z,7.25
2018-11-13T00:40:17.364Z,7.00
2018-11-13T00:42:47.036Z,7.28
2018-11-13T00:45:16.240Z,7.17
2018-11-13T00:47:45.392Z,7.00
2018-11-13T00:50:16.201Z,6.87
2018-11-13T00:52:45.923Z,7.70
2018-11-13T00:55:15.211Z,7.92
2018-11-13T00:57:44.536Z,8.10
2018-11-13T01:00:16.020Z,7.12
2018-11-13T01:02:45.389Z,7.35
2018-11-13T01:05:15.775Z,8.30
2018-11-13T01:07:46.096Z,8.38
2018-11-13T01:10:16.435Z,7.65
2018-11-13T01:12:46.275Z,8.25
2018-11-13T01:15:16.458Z,7.15
2018-11-13T01:17:46.295Z,7.30
2018-11-13T01:20:16.290Z,7.53
2018-11-13T01:22:45.499Z,7.62
2018-11-13T01:25:15.535Z,8.50
2018-11-13T01:27:45.139Z,7.40
2018-11-13T01:30:15.151Z,7.30
2018-11-13T01:32:44.762Z,8.20
2018-11-13T01:35:15.442Z,7.60
2018-11-13T01:37:44.618Z,8.05
2018-11-13T01:40:15.858Z,7.20
2018-11-13T01:42:45.334Z,7.37
2018-11-13T01:45:15.855Z,7.95
2018-11-13T01:47:45.027Z,7.83
2018-11-13T01:50:14.442Z,7.55
2018-11-13T01:52:43.600Z,7.22
2018-11-13T01:55:13.967Z,7.65
2018-11-13T01:57:43.131Z,7.15
2018-11-13T02:00:22.800Z,7.90
2018-11-13T02:02:53.250Z,7.05
2018-11-13T02:05:23.455Z,6.97
2018-11-13T02:07:53.482Z,7.45
2018-11-13T02:10:22.872Z,6.60
2018-11-13T02:12:52.702Z,6.87
2018-11-13T02:15:22.387Z,6.47
2018-11-13T02:17:51.551Z,6.58
2018-11-13T02:20:22.013Z,6.50
2018-11-13T02:22:51.225Z,6.78
2018-11-13T02:25:21.119Z,6.20
2018-11-13T02:27:50.548Z,6.75
2018-11-13T02:30:21.069Z,5.45
2018-11-13T02:32:50.587Z,6.42
2018-11-13T02:35:19.853Z,6.78
2018-11-13T02:37:48.998Z,6.35
2018-11-13T02:40:18.155Z,6.37
2018-11-13T02:42:47.328Z,6.55
2018-11-13T02:45:17.892Z,6.10
2018-11-13T02:47:47.093Z,6.03
2018-11-13T02:50:17.403Z,5.85
2018-11-13T02:52:46.599Z,6.87
2018-11-13T02:55:15.832Z,5.92
2018-11-13T02:57:45.621Z,6.50
2018-11-13T03:00:17.374Z,5.87
2018-11-13T03:02:46.521Z,6.30
2018-11-13T03:05:16.985Z,6.70
2018-11-13T03:07:46.148Z,5.62
2018-11-13T03:10:16.589Z,6.05
2018-11-13T03:12:45.747Z,6.15
2018-11-13T03:15:16.017Z,5.72
2018-11-13T03:17:45.184Z,6.15
2018-11-13T03:20:15.845Z,5.83
2018-11-13T03:22:45.376Z,5.85
2018-11-13T03:25:16.190Z,5.62
2018-11-13T03:27:45.407Z,5.90
2018-11-13T03:30:17.815Z,5.75
2018-11-13T03:32:46.981Z,5.75
2018-11-13T03:35:16.124Z,6.17
2018-11-13T03:37:45.328Z,5.42
2018-11-13T03:40:15.060Z,5.72
2018-11-13T03:42:44.858Z,5.60
2018-11-13T03:45:14.409Z,6.22
2018-11-13T03:47:43.643Z,5.37
2018-11-13T03:50:16.411Z,6.58
2018-11-13T03:52:45.980Z,5.40
2018-11-13T03:55:15.679Z,5.37
2018-11-13T03:57:45.499Z,6.12
2018-11-13T04:00:19.912Z,6.12
2018-11-13T04:02:49.083Z,6.22
2018-11-13T04:05:19.124Z,6.35
2018-11-13T04:07:49.556Z,6.28
2018-11-13T04:10:19.892Z,5.87
2018-11-13T04:12:49.110Z,5.87
2018-11-13T04:15:19.693Z,5.67
2018-11-13T04:17:48.892Z,5.92
2018-11-13T04:20:19.319Z,5.55
2018-11-13T04:22:48.860Z,5.92
2018-11-13T04:25:18.059Z,5.50
2018-11-13T04:27:47.205Z,5.47
2018-11-13T04:30:17.985Z,5.67
2018-11-13T04:32:47.138Z,6.22
2018-11-13T04:35:23.083Z,5.53
2018-11-13T04:37:52.219Z,6.67
2018-11-13T04:40:21.823Z,6.05
2018-11-13T04:42:53.130Z,5.87
2018-11-13T04:45:23.707Z,5.92
2018-11-13T04:47:52.894Z,6.50
2018-11-13T04:50:22.915Z,6.28
2018-11-13T04:52:52.053Z,6.08
2018-11-13T04:55:21.233Z,6.90
2018-11-13T04:57:50.806Z,5.80
2018-11-13T05:00:21.163Z,5.78
2018-11-13T05:02:50.411Z,6.20
2018-11-13T05:06:22.496Z,5.37
2018-11-13T05:08:51.659Z,6.28
2018-11-13T05:11:20.805Z,6.45
2018-11-13T05:13:50.055Z,6.00
2018-11-13T05:16:19.200Z,6.37
2018-11-13T05:18:48.431Z,6.90
2018-11-13T05:21:17.578Z,6.00
2018-11-13T05:23:46.769Z,6.12
2018-11-13T05:26:15.912Z,6.62
2018-11-13T05:28:45.079Z,5.22
2018-11-13T05:31:14.226Z,6.20
2018-11-13T05:33:43.380Z,6.03
2018-11-13T05:36:12.532Z,5.65
2018-11-13T05:38:41.716Z,6.05
2018-11-13T05:41:10.876Z,5.95
2018-11-13T05:43:40.038Z,5.72
2018-11-13T05:46:09.216Z,5.72
2018-11-13T05:48:38.371Z,6.42
2018-11-13T05:51:07.948Z,5.83
2018-11-13T05:53:37.106Z,6.28
2018-11-13T05:56:06.540Z,6.62
2018-11-13T05:58:35.751Z,6.42
2018-11-13T06:01:05.122Z,6.37
2018-11-13T06:03:34.258Z,6.10
2018-11-13T06:06:03.419Z,6.15
2018-11-13T06:08:32.721Z,6.00
2018-11-13T06:11:01.869Z,6.47
2018-11-13T06:13:31.031Z,6.47
2018-11-13T06:16:00.202Z,6.75
2018-11-13T06:18:29.364Z,6.55
2018-11-13T06:20:58.539Z,6.47
2018-11-13T06:23:27.698Z,6.12
2018-11-13T06:25:57.167Z,5.75
2018-11-13T06:28:26.304Z,5.92
2018-11-13T06:30:55.466Z,6.50
2018-11-13T06:33:24.604Z,6.20
2018-11-13T06:35:53.795Z,6.62
2018-11-13T06:38:22.959Z,5.87
2018-11-13T06:40:52.134Z,6.87
2018-11-13T06:43:21.297Z,6.28
2018-11-13T06:45:50.474Z,5.95
2018-11-13T06:48:19.617Z,5.50
2018-11-13T06:50:48.830Z,6.37
2018-11-13T06:53:17.961Z,6.65
2018-11-13T06:55:49.343Z,6.03
2018-11-13T06:58:18.508Z,5.97
2018-11-13T07:00:47.683Z,5.33
2018-11-13T07:03:16.871Z,6.60
2018-11-13T07:05:46.054Z,5.97
2018-11-13T07:08:15.191Z,6.47
2018-11-13T07:10:44.417Z,7.15
2018-11-13T07:13:13.523Z,6.10
2018-11-13T07:15:42.691Z,7.03
2018-11-13T07:18:11.855Z,6.42
2018-11-13T07:20:41.021Z,5.97
2018-11-13T07:23:10.159Z,6.15
2018-11-13T07:25:39.603Z,6.15
2018-11-13T07:28:08.809Z,5.95
2018-11-13T07:30:37.979Z,6.95
2018-11-13T07:33:07.143Z,6.20
2018-11-13T07:35:36.335Z,7.28
2018-11-13T07:38:05.545Z,6.90
2018-11-13T07:40:34.713Z,6.62
2018-11-13T07:43:03.868Z,6.72
2018-11-13T07:45:33.047Z,5.78
2018-11-13T07:48:02.248Z,6.62
2018-11-13T07:50:31.419Z,7.40
2018-11-13T07:53:00.547Z,6.42
2018-11-13T07:55:29.709Z,6.90
2018-11-13T07:57:58.848Z,7.47
2018-11-13T08:00:28.001Z,7.40
2018-11-13T08:03:01.675Z,6.97
2018-11-13T08:05:30.845Z,6.53
2018-11-13T08:08:00.018Z,7.10
2018-11-13T08:10:29.187Z,7.42
2018-11-13T08:12:58.429Z,7.40
2018-11-13T08:15:27.553Z,8.00
2018-11-13T08:17:56.733Z,7.22
2018-11-13T08:20:25.885Z,7.90
2018-11-13T08:22:55.025Z,7.85
2018-11-13T08:25:24.177Z,8.50
2018-11-13T08:27:53.332Z,9.15
2018-11-13T08:30:22.514Z,8.55
2018-11-13T08:32:51.669Z,10.05
2018-11-13T08:35:20.845Z,9.10
2018-11-13T08:37:49.987Z,9.05
2018-11-13T08:40:19.456Z,8.53
2018-11-13T08:42:48.618Z,8.90
2018-11-13T08:45:17.999Z,9.40
2018-11-13T08:47:47.272Z,9.13
2018-11-13T08:50:16.721Z,9.93
2018-11-13T08:52:46.635Z,9.75
2018-11-13T08:55:16.122Z,8.93
2018-11-13T08:57:45.527Z,9.10
2018-11-13T09:00:16.247Z,8.80
2018-11-13T09:02:51.995Z,9.20
2018-11-13T09:05:21.159Z,8.80
2018-11-13T09:07:50.349Z,9.65
2018-11-13T09:10:19.516Z,9.60
2018-11-13T09:12:48.789Z,8.33
2018-11-13T09:15:19.436Z,9.73
2018-11-13T09:17:48.687Z,9.30
2018-11-13T09:20:19.155Z,8.68
2018-11-13T09:22:48.503Z,9.30
2018-11-13T09:25:20.740Z,8.28
2018-11-13T09:27:49.917Z,9.08
2018-11-13T09:30:20.616Z,10.98
2018-11-13T09:32:49.956Z,8.75
2018-11-13T09:35:19.664Z,9.20
2018-11-13T09:37:48.835Z,9.05
2018-11-13T09:40:19.958Z,9.18
2018-11-13T09:42:50.434Z,8.45
2018-11-13T09:45:19.724Z,7.70
2018-11-13T09:47:48.979Z,7.55
2018-11-13T09:50:19.344Z,8.13
2018-11-13T09:52:49.893Z,9.85
2018-11-13T09:55:20.411Z,7.67
2018-11-13T09:57:49.732Z,7.67
2018-11-13T10:00:23.445Z,7.70
2018-11-13T10:02:55.820Z,7.70
2018-11-13T10:05:24.415Z,7.45
2018-11-13T10:07:54.096Z,7.65
2018-11-13T10:10:23.667Z,7.17
2018-11-13T10:12:52.818Z,7.00
2018-11-13T10:15:23.308Z,7.30
2018-11-13T10:17:52.548Z,5.92
2018-11-13T10:20:21.673Z,6.03
2018-11-13T10:22:52.136Z,6.37
2018-11-13T10:25:21.368Z,5.67
2018-11-13T10:27:50.600Z,5.83
2018-11-13T10:30:21.044Z,6.10
2018-11-13T10:32:51.089Z,5.85
2018-11-13T10:35:21.587Z,5.40
2018-11-13T10:37:50.750Z,5.40
2018-11-13T10:40:20.988Z,5.65
2018-11-13T10:42:50.543Z,5.28
2018-11-13T10:45:22.481Z,5.03
2018-11-13T10:47:51.700Z,5.05
2018-11-13T10:50:22.589Z,5.30
2018-11-13T10:52:51.843Z,5.20
2018-11-13T10:55:21.218Z,4.50
2018-11-13T10:57:50.387Z,4.75
2018-11-13T11:00:25.149Z,4.83
2018-11-13T11:02:59.841Z,4.70
2018-11-13T11:05:29.487Z,5.83
2018-11-13T11:07:59.067Z,4.90
2018-11-13T11:10:28.329Z,4.60
2018-11-13T11:12:57.642Z,4.92
2018-11-13T11:15:26.680Z,4.30
2018-11-13T11:17:55.983Z,4.70
2018-11-13T11:20:25.170Z,3.77
2018-11-13T11:22:54.530Z,4.22
2018-11-13T11:25:23.582Z,3.60
2018-11-13T11:27:52.730Z,3.95
2018-11-13T11:30:21.932Z,2.75
2018-11-13T11:32:51.077Z,2.45
2018-11-13T11:35:20.268Z,2.62
2018-11-13T11:37:49.505Z,2.40
2018-11-13T11:40:18.743Z,2.80
2018-11-13T11:42:53.644Z,2.45
2018-11-13T11:45:53.805Z,2.35
2018-11-13T11:48:26.278Z,2.87
2018-11-13T11:54:09.362Z,2.72
2018-11-13T11:56:38.551Z,2.55
2018-11-13T11:59:07.720Z,2.75
2018-11-13T12:01:36.892Z,2.50
2018-11-13T12:04:06.605Z,2.40
2018-11-13T12:06:35.803Z,2.60
2018-11-13T12:09:08.576Z,2.20
2018-11-13T12:11:38.823Z,2.45
2018-11-13T12:14:08.081Z,2.47
2018-11-13T12:16:37.906Z,2.65
2018-11-13T12:19:08.037Z,2.37
2018-11-13T12:21:37.172Z,2.60
2018-11-13T12:24:06.945Z,2.25
2018-11-13T12:26:36.672Z,2.20
2018-11-13T12:29:06.359Z,2.30
2018-11-13T12:31:35.675Z,2.30
2018-11-13T12:34:04.877Z,2.30
2018-11-13T12:36:34.058Z,2.60
2018-11-13T12:39:03.307Z,3.42
2018-11-13T12:41:32.473Z,2.15
2018-11-13T12:44:01.640Z,2.12
2018-11-13T12:46:30.927Z,2.40
2018-11-13T12:49:00.163Z,2.10
2018-11-13T12:51:36.500Z,2.20
2018-11-13T12:54:05.691Z,2.08
2018-11-13T12:56:34.835Z,2.05
2018-11-13T12:59:03.983Z,2.08
2018-11-13T13:01:33.225Z,2.00
2018-11-13T13:04:02.406Z,2.00
2018-11-13T13:06:31.648Z,2.40
2018-11-13T13:09:00.787Z,2.10
2018-11-13T13:11:30.024Z,2.17
2018-11-13T13:14:04.483Z,2.27
2018-11-13T13:16:33.717Z,1.55
2018-11-13T13:19:04.103Z,1.75
2018-11-13T13:21:33.250Z,1.70
2018-11-13T13:24:02.455Z,1.37
2018-11-13T13:26:31.646Z,1.60
2018-11-13T13:29:00.815Z,1.50
2018-11-13T13:31:30.102Z,1.20
2018-11-13T13:33:59.589Z,1.20
2018-11-13T13:36:28.788Z,1.27
2018-11-13T13:38:57.949Z,0.82
2018-11-13T13:41:27.152Z,0.80
2018-11-13T13:43:56.340Z,0.90
2018-11-13T13:46:25.585Z,0.60
2018-11-13T13:48:54.822Z,0.50
2018-11-13T13:51:24.063Z,0.50
2018-11-13T13:53:53.296Z,0.60
2018-11-13T13:56:22.458Z,0.70
2018-11-13T13:58:51.638Z,0.50
2018-11-13T14:01:20.830Z,0.60
2018-11-13T14:03:50.102Z,0.45
2018-11-13T14:06:19.329Z,0.50
2018-11-13T14:08:48.512Z,0.50
2018-11-13T14:11:17.747Z,0.50
2018-11-13T14:13:46.919Z,0.50
2018-11-13T14:16:16.106Z,0.68
2018-11-13T14:18:45.315Z,0.50
2018-11-13T14:21:14.514Z,0.60
2018-11-13T14:23:43.707Z,0.65
2018-11-13T14:26:12.896Z,0.70
2018-11-13T14:28:42.089Z,0.78
2018-11-13T14:31:11.275Z,0.80
2018-11-13T14:33:40.512Z,0.88
2018-11-13T14:36:09.735Z,0.75
2018-11-13T14:38:38.886Z,0.75
2018-11-13T14:41:08.098Z,0.80
2018-11-13T14:43:37.245Z,0.80
2018-11-13T14:46:07.039Z,0.88
2018-11-13T14:48:37.520Z,1.00
2018-11-13T14:51:06.764Z,1.00
2018-11-13T14:53:35.927Z,1.02
2018-11-13T14:56:05.339Z,1.10
2018-11-13T14:58:34.495Z,1.00
2018-11-13T15:01:03.716Z,1.47
2018-11-13T15:03:32.883Z,0.90
2018-11-13T15:06:02.117Z,0.78
2018-11-13T15:08:31.287Z,0.85
2018-11-13T15:11:00.483Z,0.70
2018-11-13T15:13:29.650Z,1.30
2018-11-13T15:15:58.917Z,0.80
2018-11-13T15:18:28.110Z,1.00
2018-11-13T15:20:57.301Z,0.80
2018-11-13T15:23:26.507Z,1.00
2018-11-13T15:25:55.769Z,0.93
2018-11-13T15:28:24.962Z,1.00
2018-11-13T15:30:54.176Z,1.10
2018-11-13T15:33:24.799Z,1.10
2018-11-13T15:35:53.937Z,1.20
2018-11-13T15:38:23.115Z,1.20
2018-11-13T15:40:52.263Z,1.10
2018-11-13T15:43:21.559Z,1.25
2018-11-13T15:45:50.772Z,1.20
2018-11-13T15:48:19.923Z,1.22
2018-11-13T15:50:49.055Z,1.10
2018-11-13T15:53:18.264Z,1.30
2018-11-13T15:55:47.407Z,1.40
2018-11-13T15:58:16.606Z,1.30
2018-11-13T16:00:45.778Z,1.40
2018-11-13T16:03:23.608Z,1.60
2018-11-13T16:05:54.021Z,2.67
2018-11-13T16:08:23.216Z,2.00
2018-11-13T16:10:52.386Z,1.72
2018-11-13T16:13:21.613Z,1.85
2018-11-13T16:15:50.780Z,1.30
2018-11-13T16:18:21.667Z,2.17
2018-11-13T16:20:50.827Z,1.90
2018-11-13T16:23:20.245Z,2.00
2018-11-13T16:25:49.419Z,1.70
2018-11-13T16:28:18.588Z,1.40
2018-11-13T16:30:47.839Z,1.40
2018-11-13T16:33:16.971Z,1.67
2018-11-13T16:35:46.146Z,1.82
2018-11-13T16:38:15.416Z,1.62
2018-11-13T16:40:44.498Z,1.80
2018-11-13T16:43:13.687Z,1.62
2018-11-13T16:45:42.870Z,1.80
2018-11-13T16:48:12.270Z,1.30
2018-11-13T16:50:42.319Z,1.60
2018-11-13T16:53:11.465Z,1.37
2018-11-13T16:55:45.862Z,1.70
2018-11-13T16:58:16.208Z,1.37
2018-11-13T17:00:46.808Z,1.90
2018-11-13T17:03:15.949Z,1.87
2018-11-13T17:05:45.243Z,2.00
2018-11-13T17:08:14.378Z,1.70
2018-11-13T17:10:44.221Z,2.10
2018-11-13T17:13:13.628Z,2.60
2018-11-13T17:15:42.807Z,2.17
2018-11-13T17:18:13.599Z,2.25
2018-11-13T17:20:41.239Z,2.20
2018-11-13T17:23:10.453Z,2.50
2018-11-13T17:25:40.027Z,2.15
2018-11-13T17:28:09.436Z,2.50
2018-11-13T17:30:38.821Z,2.45
2018-11-13T17:33:09.866Z,2.10
2018-11-13T17:35:39.629Z,2.47
2018-11-13T17:38:08.962Z,2.33
2018-11-13T17:40:38.555Z,2.00
2018-11-13T17:43:11.032Z,2.20
2018-11-13T17:45:41.396Z,2.12
2018-11-13T17:48:12.096Z,2.37
2018-11-13T17:50:42.556Z,2.58
2018-11-13T17:53:12.263Z,2.40
2018-11-13T17:55:41.840Z,2.58
2018-11-13T17:58:14.032Z,1.85
2018-11-13T18:00:44.636Z,2.55
2018-11-13T18:03:15.326Z,2.52
2018-11-13T18:05:45.297Z,2.58
2018-11-13T18:08:14.892Z,2.27
2018-11-13T18:10:45.076Z,2.98
2018-11-13T18:13:14.442Z,3.10
2018-11-13T18:15:43.619Z,2.75
2018-11-13T18:18:12.780Z,2.80
2018-11-13T18:20:42.311Z,3.30
2018-11-13T18:23:11.641Z,3.77
2018-11-13T18:25:40.785Z,3.80
2018-11-13T18:28:10.053Z,3.42
2018-11-13T18:30:39.623Z,3.05
2018-11-13T18:33:09.223Z,9.33
2018-11-13T18:35:39.242Z,2.83
2018-11-13T18:38:09.921Z,2.52
2018-11-13T18:40:39.073Z,2.77
2018-11-13T18:43:08.485Z,2.55
2018-11-13T18:45:39.094Z,2.60
2018-11-13T18:48:08.379Z,2.25
2018-11-13T18:50:39.660Z,2.00
2018-11-13T18:53:08.844Z,2.58
2018-11-13T18:55:38.044Z,2.60
2018-11-13T18:58:07.397Z,2.62
2018-11-13T19:00:38.414Z,2.30
2018-11-13T19:03:09.393Z,2.30
2018-11-13T19:05:38.807Z,2.60
2018-11-13T19:08:08.630Z,3.60
2018-11-13T19:10:40.802Z,3.40
2018-11-13T19:13:11.957Z,4.05
2018-11-13T19:15:44.346Z,3.10
2018-11-13T19:18:14.653Z,2.72
2018-11-13T19:20:43.781Z,2.83
2018-11-13T19:23:12.974Z,2.47
2018-11-13T19:25:42.419Z,2.60
2018-11-13T19:28:11.745Z,2.40
2018-11-13T19:30:40.891Z,2.37
2018-11-13T19:33:10.309Z,2.50
2018-11-13T19:35:39.613Z,3.10
2018-11-13T19:38:08.687Z,2.47
2018-11-13T19:40:38.015Z,2.40
2018-11-13T19:43:08.759Z,3.00
2018-11-13T19:45:37.848Z,2.77
2018-11-13T19:48:07.015Z,2.65
2018-11-13T19:50:37.328Z,3.45
2018-11-13T19:53:06.721Z,3.22
2018-11-13T19:55:36.071Z,2.50
2018-11-13T19:58:05.237Z,3.17
2018-11-13T20:00:35.715Z,3.22
2018-11-13T20:03:06.324Z,3.95
2018-11-13T20:05:35.498Z,2.95
2018-11-13T20:08:05.028Z,3.05
2018-11-13T20:10:35.164Z,3.08
2018-11-13T20:13:05.363Z,3.12
2018-11-13T20:15:35.096Z,3.10
2018-11-13T20:18:04.375Z,3.47
2018-11-13T20:20:34.192Z,3.50
2018-11-13T20:23:04.512Z,3.30
2018-11-13T20:25:34.549Z,3.20
2018-11-13T20:28:03.700Z,3.42
2018-11-13T20:30:37.130Z,3.60
2018-11-13T20:33:06.509Z,3.37
2018-11-13T20:35:35.691Z,3.87
2018-11-13T20:38:05.432Z,3.42
2018-11-13T20:40:35.671Z,3.52
2018-11-13T20:43:07.207Z,3.27
2018-11-13T20:45:36.408Z,3.92
2018-11-13T20:48:05.943Z,3.90
2018-11-13T20:50:35.523Z,4.12
2018-11-13T20:53:04.692Z,3.62
2018-11-13T20:55:33.972Z,4.60
2018-11-13T20:58:03.119Z,4.25
2018-11-13T21:00:33.610Z,3.90
2018-11-13T21:03:02.851Z,3.80
2018-11-13T21:05:32.007Z,3.52
2018-11-13T21:08:01.163Z,4.08
2018-11-13T21:10:36.175Z,4.00
2018-11-13T21:13:05.572Z,4.30
2018-11-13T21:15:34.719Z,4.03
2018-11-13T21:18:03.898Z,4.00
2018-11-13T21:20:33.061Z,4.00
2018-11-13T21:23:02.335Z,4.20
2018-11-13T21:25:31.548Z,3.90
2018-11-13T21:28:01.943Z,3.70
2018-11-13T21:30:31.174Z,3.50
2018-11-13T21:33:00.241Z,3.70
2018-11-13T21:35:29.415Z,4.22
2018-11-13T21:37:58.708Z,4.28
2018-11-13T21:40:28.487Z,4.25
2018-11-13T21:42:58.182Z,4.22
2018-11-13T21:45:28.262Z,4.45
2018-11-13T21:47:57.461Z,4.45
2018-11-13T21:50:27.941Z,4.72
2018-11-13T21:52:58.322Z,4.60
2018-11-13T21:55:28.686Z,5.00
2018-11-13T21:57:57.826Z,4.92
2018-11-13T22:00:30.550Z,4.00
2018-11-13T22:03:03.815Z,3.65
2018-11-13T22:05:33.778Z,4.37
2018-11-13T22:08:02.985Z,3.70
2018-11-13T22:10:32.111Z,3.92
2018-11-13T22:13:01.267Z,4.25
2018-11-13T22:15:31.032Z,4.60
2018-11-13T22:18:00.880Z,4.50
2018-11-13T22:20:29.576Z,4.22
2018-11-13T22:23:00.058Z,3.87
2018-11-13T22:25:29.230Z,3.87
2018-11-13T22:27:59.156Z,4.22
2018-11-13T22:30:30.556Z,3.70
2018-11-13T22:32:59.702Z,3.75
2018-11-13T22:35:28.917Z,3.67
2018-11-13T22:37:58.218Z,3.55
2018-11-13T22:40:28.567Z,4.10
2018-11-13T22:42:58.164Z,4.03
2018-11-13T22:45:28.397Z,4.90
2018-11-13T22:47:57.849Z,4.12
2018-11-13T22:50:28.420Z,4.08
2018-11-13T22:52:57.804Z,4.22
2018-11-13T22:55:26.948Z,3.75
2018-11-13T22:57:56.854Z,5.22
2018-11-13T23:00:34.275Z,4.05
2018-11-13T23:03:03.412Z,4.15
2018-11-13T23:05:32.589Z,4.65
2018-11-13T23:08:01.720Z,4.15
2018-11-13T23:10:30.879Z,4.55
2018-11-13T23:13:00.014Z,4.30
2018-11-13T23:15:29.188Z,4.53
2018-11-13T23:17:58.354Z,4.30
2018-11-13T23:20:27.500Z,4.80
2018-11-13T23:22:56.625Z,4.72
2018-11-13T23:25:25.771Z,4.33
2018-11-13T23:27:54.953Z,4.50
2018-11-13T23:30:25.472Z,4.40
2018-11-13T23:32:55.487Z,4.60
2018-11-13T23:35:24.612Z,4.47
2018-11-13T23:38:57.197Z,4.42
2018-11-13T23:41:26.342Z,4.22
2018-11-13T23:43:55.496Z,4.42
2018-11-13T23:46:25.338Z,4.85
2018-11-13T23:48:54.475Z,4.58
2018-11-13T23:51:23.628Z,4.12
2018-11-13T23:53:52.834Z,4.00
2018-11-13T23:56:21.982Z,4.00
2018-11-13T23:58:51.151Z,4.20
